Kellys Korner, Washington
Current Conditions -  °F | °C
As of 9:54 PM on Tuesday 21 Oct 2014 (Local Time) from KOLM Reporting Station
Overcast Overcast  
Wind Chill: 58°   Ceiling: 6000
Heat Index: 58°   Visibility: 10mi
Dew Point: 48°   Wind: 15mph
Humidity: 70%   Direction: 180°S
Pressure: 29.78"   Gusts: NA
Location:  46.9679°N, 122.834°W
Report Text: KOLM 220454Z AUTO 18013KT 10SM OVC060 14/09 A2978 RMK AO2 RAE02 SLP085 P0000 T01440089
Loading
Personal Weather Stations






























Interactive Weather Map New forecast layout! Learn more

10-Day Weather Forecast

Advertisements
Track Severe Weather on mobile